createdAt,value
2018-08-18T00:00:28.752Z,98114.42
2018-08-18T00:02:58.065Z,98078.91
2018-08-18T00:05:27.396Z,98102.03
2018-08-18T00:07:56.763Z,98108.64
2018-08-18T00:10:26.281Z,98103.57
2018-08-18T00:12:55.590Z,98103.30
2018-08-18T00:15:24.929Z,98118.07
2018-08-18T00:17:54.254Z,98126.75
2018-08-18T00:20:25.960Z,98128.63
2018-08-18T00:22:55.271Z,98140.88
2018-08-18T00:25:24.621Z,98152.81
2018-08-18T00:27:54.685Z,98143.88
2018-08-18T00:30:27.315Z,98147.38
2018-08-18T00:32:56.637Z,98148.43
2018-08-18T00:35:25.976Z,98150.09
2018-08-18T00:37:55.302Z,98142.01
2018-08-18T00:40:24.686Z,98138.51
2018-08-18T00:42:54.052Z,98142.84
2018-08-18T00:45:23.383Z,98136.63
2018-08-18T00:47:52.717Z,98138.58
2018-08-18T00:50:43.625Z,98130.77
2018-08-18T00:53:15.003Z,98142.34
2018-08-18T00:55:44.344Z,98146.08
2018-08-18T00:58:20.965Z,98151.97
2018-08-18T01:00:55.589Z,98160.58
2018-08-18T01:03:24.863Z,98151.20
2018-08-18T01:05:54.260Z,98158.70
2018-08-18T01:08:23.555Z,98164.39
2018-08-18T01:10:52.979Z,98168.73
2018-08-18T01:13:22.261Z,98170.78
2018-08-18T01:15:51.607Z,98180.30
2018-08-18T01:18:20.886Z,98183.53
2018-08-18T01:20:50.178Z,98180.88
2018-08-18T01:23:19.522Z,98164.25
2018-08-18T01:25:48.843Z,98180.06
2018-08-18T01:28:18.226Z,98183.84
2018-08-18T01:30:56.786Z,98188.55
2018-08-18T01:33:27.155Z,98188.62
2018-08-18T01:35:56.481Z,98190.20
2018-08-18T01:38:25.824Z,98193.50
2018-08-18T01:41:05.262Z,98191.67
2018-08-18T01:43:34.509Z,98199.98
2018-08-18T01:46:03.814Z,98191.88
2018-08-18T01:48:33.432Z,98202.17
2018-08-18T01:51:17.793Z,98202.17
2018-08-18T01:53:49.119Z,98199.98
2018-08-18T01:56:19.949Z,98197.87
2018-08-18T01:58:49.196Z,98201.13
2018-08-18T02:01:18.480Z,98206.23
2018-08-18T02:03:47.899Z,98207.31
2018-08-18T02:06:17.215Z,98196.48
2018-08-18T02:08:59.391Z,98196.48
2018-08-18T02:11:28.702Z,98202.44
2018-08-18T02:13:58.084Z,98199.54
2018-08-18T02:16:28.140Z,98201.09
2018-08-18T02:18:57.431Z,98197.12
2018-08-18T02:21:31.859Z,98201.16
2018-08-18T02:24:03.480Z,98193.94
2018-08-18T02:26:34.527Z,98211.41
2018-08-18T02:29:04.256Z,98194.72
2018-08-18T02:31:34.368Z,98198.48
2018-08-18T02:34:03.679Z,98196.61
2018-08-18T02:36:33.466Z,98193.40
2018-08-18T02:39:02.787Z,98191.30
2018-08-18T02:41:33.162Z,98187.54
2018-08-18T02:44:02.471Z,98180.00
2018-08-18T02:46:36.334Z,98181.64
2018-08-18T02:49:06.161Z,98184.63
2018-08-18T02:51:35.836Z,98184.70
2018-08-18T02:54:05.191Z,98176.09
2018-08-18T02:56:42.574Z,98175.83
2018-08-18T02:59:12.845Z,98182.84
2018-08-18T03:01:43.328Z,98180.19
2018-08-18T03:04:13.852Z,98186.91
2018-08-18T03:06:43.265Z,98188.53
2018-08-18T03:09:12.982Z,98193.64
2018-08-18T03:11:43.266Z,98193.39
2018-08-18T03:14:12.563Z,98201.70
2018-08-18T03:16:42.872Z,98201.98
2018-08-18T03:19:14.930Z,98206.02
2018-08-18T03:21:44.472Z,98209.23
2018-08-18T03:24:18.673Z,98217.33
2018-08-18T03:26:50.195Z,98221.35
2018-08-18T03:29:20.363Z,98223.27
2018-08-18T03:31:50.027Z,98221.09
2018-08-18T03:34:19.692Z,98216.82
2018-08-18T03:36:52.060Z,98223.61
2018-08-18T03:39:27.838Z,98221.70
2018-08-18T03:41:59.272Z,98232.75
2018-08-18T03:44:28.559Z,98229.51
2018-08-18T03:46:57.887Z,98229.50
2018-08-18T03:49:27.212Z,98238.09
2018-08-18T03:51:56.713Z,98237.83
2018-08-18T03:54:26.024Z,98233.55
2018-08-18T03:56:55.277Z,98233.52
2018-08-18T03:59:24.693Z,98236.22
2018-08-18T04:01:57.108Z,98243.72
2018-08-18T04:04:30.952Z,98246.72
2018-08-18T04:07:01.109Z,98248.38
2018-08-18T04:09:36.380Z,98249.98
2018-08-18T04:12:07.111Z,98254.28
2018-08-18T04:14:41.565Z,98254.80
2018-08-18T04:17:27.939Z,98252.94
2018-08-18T04:19:57.238Z,98251.59
2018-08-18T04:22:26.806Z,98253.48
2018-08-18T04:24:57.003Z,98252.69
2018-08-18T04:27:44.802Z,98248.13
2018-08-18T04:30:17.689Z,98253.77
2018-08-18T04:33:06.611Z,98251.88
2018-08-18T04:35:35.914Z,98257.52
2018-08-18T04:38:05.245Z,98252.67
2018-08-18T04:40:36.649Z,98259.12
2018-08-18T04:43:05.997Z,98263.69
2018-08-18T04:45:35.294Z,98270.43
2018-08-18T04:48:04.574Z,98276.59
2018-08-18T04:50:33.976Z,98279.55
2018-08-18T04:53:03.199Z,98277.13
2018-08-18T04:55:32.483Z,98283.84
2018-08-18T04:58:01.771Z,98279.29
2018-08-18T05:00:31.232Z,98274.70
2018-08-18T05:03:00.607Z,98268.27
2018-08-18T05:05:32.126Z,98269.06
2018-08-18T05:08:02.258Z,98271.73
2018-08-18T05:10:32.582Z,98261.27
2018-08-18T05:13:01.842Z,98261.79
2018-08-18T05:15:31.845Z,98266.56
2018-08-18T05:18:01.164Z,98266.00
2018-08-18T05:20:30.616Z,98270.52
2018-08-18T05:23:31.295Z,98273.73
2018-08-18T05:26:00.643Z,98277.46
2018-08-18T05:28:29.974Z,98276.04
2018-08-18T05:30:59.390Z,98277.83
2018-08-18T05:33:28.699Z,98277.00
2018-08-18T05:35:58.003Z,98278.81
2018-08-18T05:38:27.385Z,98281.48
2018-08-18T05:40:56.762Z,98281.33
2018-08-18T05:43:26.318Z,98274.94
2018-08-18T05:45:55.715Z,98277.63
2018-08-18T05:48:24.990Z,98276.52
2018-08-18T05:50:54.265Z,98280.32
2018-08-18T05:53:24.925Z,98283.92
2018-08-18T05:55:54.250Z,98284.70
2018-08-18T05:58:23.581Z,98292.98
2018-08-18T06:00:58.079Z,98294.94
2018-08-18T06:03:27.379Z,98300.72
2018-08-18T06:05:58.402Z,98299.55
2018-08-18T06:08:27.735Z,98296.38
2018-08-18T06:10:57.163Z,98297.63
2018-08-18T06:13:26.478Z,98296.83
2018-08-18T06:16:10.867Z,98298.74
2018-08-18T06:18:41.033Z,98302.01
2018-08-18T06:21:10.354Z,98304.16
2018-08-18T06:23:39.861Z,98308.41
2018-08-18T06:26:09.393Z,98309.48
2018-08-18T06:28:38.894Z,98314.58
2018-08-18T06:31:08.234Z,98315.95
2018-08-18T06:33:37.563Z,98311.81
2018-08-18T06:36:06.839Z,98309.89
2018-08-18T06:38:36.270Z,98318.59
2018-08-18T06:41:05.739Z,98321.28
2018-08-18T06:43:35.567Z,98329.06
2018-08-18T06:46:04.872Z,98325.17
2018-08-18T06:48:35.908Z,98325.05
2018-08-18T06:51:05.258Z,98324.91
2018-08-18T06:53:39.915Z,98320.65
2018-08-18T06:56:09.329Z,98319.30
2018-08-18T06:58:38.737Z,98315.41
2018-08-18T07:01:08.664Z,98314.48
2018-08-18T07:03:41.118Z,98313.63
2018-08-18T07:06:12.722Z,98311.66
2018-08-18T07:08:47.372Z,98320.92
2018-08-18T07:11:16.665Z,98321.28
2018-08-18T07:13:46.502Z,98328.80
2018-08-18T07:16:15.858Z,98327.98
2018-08-18T07:21:06.802Z,98322.67
2018-08-18T07:23:36.093Z,98316.86
2018-08-18T07:26:05.530Z,98324.97
2018-08-18T07:28:34.845Z,98323.84
2018-08-18T07:31:04.154Z,98324.54
2018-08-18T07:33:33.616Z,98325.13
2018-08-18T07:36:03.030Z,98307.45
2018-08-18T07:38:32.414Z,98332.75
2018-08-18T07:41:01.799Z,98329.78
2018-08-18T07:43:33.548Z,98337.83
2018-08-18T07:46:04.372Z,98338.25
2018-08-18T07:48:33.762Z,98338.38
2018-08-18T07:51:03.117Z,98337.41
2018-08-18T07:53:32.546Z,98350.29
2018-08-18T07:56:01.836Z,98346.72
2018-08-18T07:58:31.144Z,98350.40
2018-08-18T08:01:01.048Z,98346.50
2018-08-18T08:03:30.751Z,98361.89
2018-08-18T08:06:00.131Z,98359.88
2018-08-18T08:08:34.614Z,98354.80
2018-08-18T08:11:12.015Z,98359.73
2018-08-18T08:13:41.428Z,98364.78
2018-08-18T08:16:10.995Z,98359.52
2018-08-18T08:18:40.313Z,98358.09
2018-08-18T08:21:09.617Z,98364.57
2018-08-18T08:23:39.091Z,98370.66
2018-08-18T08:26:08.466Z,98374.76
2018-08-18T08:28:37.858Z,98370.90
2018-08-18T08:31:07.218Z,98380.00
2018-08-18T08:33:39.323Z,98376.66
2018-08-18T08:36:13.582Z,98377.30
2018-08-18T08:39:03.447Z,98374.62
2018-08-18T08:41:33.281Z,98382.33
2018-08-18T08:44:04.187Z,98378.70
2018-08-18T08:46:34.524Z,98375.50
2018-08-18T08:49:05.544Z,98371.15
2018-08-18T08:51:36.031Z,98373.98
2018-08-18T08:54:06.634Z,98378.40
2018-08-18T08:56:40.709Z,98363.83
2018-08-18T08:59:11.575Z,98369.87
2018-08-18T09:01:43.227Z,98362.87
2018-08-18T09:04:14.809Z,98361.30
2018-08-18T09:06:50.824Z,98354.14
2018-08-18T09:09:23.232Z,98355.93
2018-08-18T09:11:54.457Z,98352.52
2018-08-18T09:14:23.853Z,98354.12
2018-08-18T09:16:53.393Z,98356.14
2018-08-18T09:19:22.913Z,98352.17
2018-08-18T09:21:57.183Z,98356.72
2018-08-18T09:24:27.876Z,98357.73
2018-08-18T09:26:58.407Z,98354.16
2018-08-18T09:29:31.170Z,98356.75
2018-08-18T09:32:00.521Z,98353.89
2018-08-18T09:34:34.805Z,98352.74
2018-08-18T09:37:04.966Z,98360.91
2018-08-18T09:39:34.847Z,98350.27
2018-08-18T09:42:08.105Z,98354.77
2018-08-18T09:44:46.984Z,98354.61
2018-08-18T09:47:16.710Z,98359.19
2018-08-18T09:49:46.449Z,98353.43
2018-08-18T09:52:19.026Z,98356.38
2018-08-18T09:54:48.531Z,98353.91
2018-08-18T09:57:18.091Z,98347.72
2018-08-18T09:59:47.629Z,98347.17
2018-08-18T10:02:17.205Z,98347.37
2018-08-18T10:04:46.869Z,98348.45
2018-08-18T10:07:16.435Z,98348.73
2018-08-18T10:09:46.273Z,98345.99
2018-08-18T10:12:15.795Z,98352.81
2018-08-18T10:14:45.292Z,98345.51
2018-08-18T10:17:14.721Z,98348.53
2018-08-18T10:19:44.202Z,98346.95
2018-08-18T10:22:13.716Z,98346.15
2018-08-18T10:24:43.282Z,98352.04
2018-08-18T10:27:12.708Z,98340.94
2018-08-18T10:29:42.318Z,98340.69
2018-08-18T10:32:11.789Z,98340.32
2018-08-18T10:34:41.115Z,98343.13
2018-08-18T10:37:10.495Z,98337.69
2018-08-18T10:39:39.801Z,98347.05
2018-08-18T10:42:14.061Z,98343.39
2018-08-18T10:44:50.894Z,98349.10
2018-08-18T10:47:21.748Z,98341.52
2018-08-18T10:50:08.077Z,98332.77
2018-08-18T10:52:54.779Z,98333.58
2018-08-18T10:55:24.158Z,98333.71
2018-08-18T10:58:08.719Z,98338.69
2018-08-18T11:00:38.498Z,98332.59
2018-08-18T11:03:08.808Z,98336.61
2018-08-18T11:05:38.114Z,98335.96
2018-08-18T11:08:08.347Z,98332.27
2018-08-18T11:10:39.635Z,98339.91
2018-08-18T11:13:08.958Z,98338.10
2018-08-18T11:15:38.348Z,98329.86
2018-08-18T11:18:07.706Z,98329.95
2018-08-18T11:20:37.058Z,98327.45
2018-08-18T11:23:13.761Z,98329.16
2018-08-18T11:25:48.544Z,98324.77
2018-08-18T11:28:18.412Z,98325.06
2018-08-18T11:30:49.662Z,98334.91
2018-08-18T11:33:37.092Z,98326.84
2018-08-18T11:36:07.807Z,98327.72
2018-08-18T11:38:37.122Z,98318.09
2018-08-18T11:41:06.495Z,98321.88
2018-08-18T11:43:45.877Z,98321.41
2018-08-18T11:46:15.317Z,98319.13
2018-08-18T11:48:44.733Z,98313.21
2018-08-18T11:51:14.306Z,98321.85
2018-08-18T11:53:58.702Z,98323.38
2018-08-18T11:56:28.036Z,98315.47
2018-08-18T11:59:09.426Z,98316.69
2018-08-18T12:01:40.123Z,98313.59
2018-08-18T12:04:09.523Z,98317.47
2018-08-18T12:06:44.734Z,98313.40
2018-08-18T12:09:14.335Z,98314.03
2018-08-18T12:11:44.047Z,98310.64
2018-08-18T12:14:13.686Z,98303.43
2018-08-18T12:16:43.387Z,98299.50
2018-08-18T12:19:12.982Z,98298.23
2018-08-18T12:21:46.305Z,98298.56
2018-08-18T12:24:19.214Z,98279.43
2018-08-18T12:27:10.197Z,98290.25
2018-08-18T12:29:39.624Z,98293.78
2018-08-18T12:32:15.157Z,98290.69
2018-08-18T12:34:44.636Z,98293.81
2018-08-18T12:37:15.089Z,98285.91
2018-08-18T12:39:44.876Z,98287.28
2018-08-18T12:42:18.629Z,98286.35
2018-08-18T12:44:48.145Z,98282.73
2018-08-18T12:47:17.607Z,98280.28
2018-08-18T12:49:46.939Z,98278.80
2018-08-18T12:52:16.446Z,98274.38
2018-08-18T12:54:45.980Z,98274.70
2018-08-18T12:57:25.583Z,98268.63
2018-08-18T12:59:55.015Z,98271.64
2018-08-18T13:02:38.972Z,98265.09
2018-08-18T13:05:08.392Z,98287.65
2018-08-18T13:07:42.065Z,98263.44
2018-08-18T13:10:20.696Z,98256.44
2018-08-18T13:12:50.959Z,98258.28
2018-08-18T13:15:20.707Z,98259.56
2018-08-18T13:17:50.124Z,98248.75
2018-08-18T13:20:23.097Z,98251.00
2018-08-18T13:22:52.656Z,98249.10
2018-08-18T13:25:22.066Z,98248.33
2018-08-18T13:27:54.275Z,98241.27
2018-08-18T13:30:24.412Z,98238.85
2018-08-18T13:32:56.082Z,98247.13
2018-08-18T13:35:25.405Z,98241.70
2018-08-18T13:37:55.094Z,98239.58
2018-08-18T13:40:26.312Z,98235.09
2018-08-18T13:42:55.593Z,98238.21
2018-08-18T13:45:57.949Z,98233.19
2018-08-18T13:48:27.262Z,98234.48
2018-08-18T13:50:56.589Z,98226.38
2018-08-18T13:53:25.860Z,98229.08
2018-08-18T13:55:55.148Z,98225.47
2018-08-18T13:58:24.447Z,98223.54
2018-08-18T14:00:53.718Z,98224.12
2018-08-18T14:03:28.024Z,98221.32
2018-08-18T14:05:57.654Z,98215.84
2018-08-18T14:08:27.002Z,98220.41
2018-08-18T14:10:56.387Z,98213.70
2018-08-18T14:13:25.641Z,98200.73
2018-08-18T14:15:57.938Z,98202.52
2018-08-18T14:18:27.238Z,98197.67
2018-08-18T14:21:06.530Z,98201.66
2018-08-18T14:23:35.786Z,98195.72
2018-08-18T14:26:05.090Z,98198.92
2018-08-18T14:28:34.457Z,98202.65
2018-08-18T14:31:03.781Z,98196.23
2018-08-18T14:33:33.146Z,98199.05
2018-08-18T14:36:07.554Z,98198.39
2018-08-18T14:38:36.843Z,98201.28
2018-08-18T14:41:06.575Z,98211.59
2018-08-18T14:43:38.914Z,98207.09
2018-08-18T14:46:10.960Z,98210.51
2018-08-18T14:48:40.463Z,98202.51
2018-08-18T14:51:10.086Z,98203.46
2018-08-18T14:53:43.805Z,98200.11
2018-08-18T14:56:14.097Z,98191.97
2018-08-18T14:58:44.434Z,98194.84
2018-08-18T15:01:14.915Z,98200.87
2018-08-18T15:03:44.393Z,98193.14
2018-08-18T15:06:13.997Z,98198.81
2018-08-18T15:11:10.904Z,98204.53
2018-08-18T15:13:40.209Z,98195.09
2018-08-18T15:16:09.498Z,98196.70
2018-08-18T15:18:40.174Z,98199.99
2018-08-18T15:21:09.523Z,98196.39
2018-08-18T15:23:38.838Z,98179.17
2018-08-18T15:26:08.180Z,98190.81
2018-08-18T15:28:37.490Z,98188.41
2018-08-18T15:31:06.793Z,98192.45
2018-08-18T15:33:36.110Z,98198.21
2018-08-18T15:36:10.959Z,98202.75
2018-08-18T15:38:45.704Z,98191.51
2018-08-18T15:41:15.338Z,98198.73
2018-08-18T15:43:44.947Z,98181.63
2018-08-18T15:46:15.059Z,98190.91
2018-08-18T15:48:44.795Z,98184.73
2018-08-18T15:51:14.642Z,98183.22
2018-08-18T15:53:51.126Z,98184.97
2018-08-18T15:56:21.355Z,98194.02
2018-08-18T15:58:51.239Z,98191.14
2018-08-18T16:01:24.644Z,98191.10
2018-08-18T16:03:54.414Z,98188.31
2018-08-18T16:06:24.044Z,98190.77
2018-08-18T16:08:53.850Z,98191.05
2018-08-18T16:11:23.275Z,98190.94
2018-08-18T16:13:52.720Z,98188.10
2018-08-18T16:16:21.952Z,98179.95
2018-08-18T16:19:00.451Z,98183.77
2018-08-18T16:21:32.038Z,98179.87
2018-08-18T16:24:01.965Z,98185.34
2018-08-18T16:26:31.298Z,98187.37
2018-08-18T16:29:00.573Z,98184.11
2018-08-18T16:31:29.956Z,98182.17
2018-08-18T16:33:59.293Z,98185.84
2018-08-18T16:36:32.699Z,98181.74
2018-08-18T16:39:02.070Z,98183.12
2018-08-18T16:41:31.399Z,98169.34
2018-08-18T16:44:00.701Z,98178.53
2018-08-18T16:46:31.729Z,98175.39
2018-08-18T16:49:01.234Z,98172.52
2018-08-18T16:51:31.270Z,98174.33
2018-08-18T16:54:18.532Z,98177.41
2018-08-18T16:56:47.835Z,98180.02
2018-08-18T16:59:17.172Z,98181.71
2018-08-18T17:01:46.507Z,98175.58
2018-08-18T17:04:22.555Z,98177.50
2018-08-18T17:06:52.145Z,98177.39
2018-08-18T17:09:40.077Z,98181.38
2018-08-18T17:12:18.645Z,98184.91
2018-08-18T17:14:48.490Z,98183.64
2018-08-18T17:17:17.762Z,98180.70
2018-08-18T17:19:47.070Z,98180.77
2018-08-18T17:22:16.686Z,98186.19
2018-08-18T17:24:45.987Z,98190.10
2018-08-18T17:27:15.359Z,98195.17
2018-08-18T17:29:46.391Z,98196.85
2018-08-18T17:32:15.713Z,98197.11
2018-08-18T17:34:45.030Z,98197.64
2018-08-18T17:37:14.310Z,98201.59
2018-08-18T17:39:43.569Z,98206.41
2018-08-18T17:42:12.805Z,98203.56
2018-08-18T17:44:42.101Z,98206.55
2018-08-18T17:47:11.927Z,98198.88
2018-08-18T17:49:57.913Z,98197.61
2018-08-18T17:52:27.918Z,98207.34
2018-08-18T17:55:13.758Z,98213.62
2018-08-18T17:57:43.027Z,98219.09
2018-08-18T18:00:14.768Z,98219.92
2018-08-18T18:02:49.590Z,98218.13
2018-08-18T18:05:22.401Z,98226.69
2018-08-18T18:07:54.927Z,98228.77
2018-08-18T18:10:26.666Z,98230.72
2018-08-18T18:12:55.937Z,98234.93
2018-08-18T18:15:37.105Z,98232.67
2018-08-18T18:18:17.059Z,98232.61
2018-08-18T18:20:47.788Z,98228.87
2018-08-18T18:23:17.587Z,98233.61
2018-08-18T18:25:46.859Z,98228.58
2018-08-18T18:28:16.125Z,98235.28
2018-08-18T18:30:45.484Z,98244.23
2018-08-18T18:33:14.862Z,98236.47
2018-08-18T18:35:44.268Z,98236.39
2018-08-18T18:38:13.602Z,98250.00
2018-08-18T18:40:45.155Z,98257.36
2018-08-18T18:43:14.467Z,98255.17
2018-08-18T18:45:47.123Z,98254.18
2018-08-18T18:48:17.270Z,98258.95
2018-08-18T18:50:48.821Z,98260.73
2018-08-18T18:53:17.904Z,98256.24
2018-08-18T18:55:52.506Z,98260.20
2018-08-18T18:58:21.817Z,98265.53
2018-08-18T19:00:57.073Z,98266.52
2018-08-18T19:03:26.429Z,98280.88
2018-08-18T19:05:55.790Z,98273.25
2018-08-18T19:08:25.189Z,98283.92
2018-08-18T19:10:54.528Z,98285.98
2018-08-18T19:13:25.028Z,98288.69
2018-08-18T19:15:54.378Z,98291.46
2018-08-18T19:18:23.743Z,98289.61
2018-08-18T19:20:52.990Z,98296.49
2018-08-18T19:23:22.030Z,98298.55
2018-08-18T19:25:52.034Z,98302.55
2018-08-18T19:28:22.706Z,98308.95
2018-08-18T19:30:52.001Z,98307.41
2018-08-18T19:33:21.322Z,98311.14
2018-08-18T19:35:51.953Z,98314.92
2018-08-18T19:38:22.214Z,98316.64
2018-08-18T19:40:53.557Z,98322.69
2018-08-18T19:43:24.060Z,98327.24
2018-08-18T19:45:53.784Z,98322.96
2018-08-18T19:48:24.414Z,98323.68
2018-08-18T19:50:59.041Z,98319.30
2018-08-18T19:53:31.170Z,98321.23
2018-08-18T19:56:01.409Z,98322.92
2018-08-18T19:58:31.226Z,98318.05
2018-08-18T20:01:00.553Z,98322.20
2018-08-18T20:03:29.849Z,98328.17
2018-08-18T20:05:59.206Z,98329.59
2018-08-18T20:08:28.600Z,98329.40
2018-08-18T20:10:59.317Z,98332.14
2018-08-18T20:13:29.852Z,98332.45
2018-08-18T20:16:00.630Z,98331.30
2018-08-18T20:18:30.525Z,98338.52
2018-08-18T20:21:00.251Z,98336.49
2018-08-18T20:23:29.598Z,98338.17
2018-08-18T20:25:58.944Z,98336.36
2018-08-18T20:28:28.223Z,98335.91
2018-08-18T20:30:57.530Z,98336.67
2018-08-18T20:33:26.817Z,98337.86
2018-08-18T20:35:56.174Z,98337.80
2018-08-18T20:38:30.418Z,98337.92
2018-08-18T20:40:59.785Z,98339.37
2018-08-18T20:43:29.450Z,98344.01
2018-08-18T20:45:58.716Z,98338.28
2018-08-18T20:48:27.977Z,98346.50
2018-08-18T20:50:57.297Z,98342.67
2018-08-18T20:53:28.074Z,98346.79
2018-08-18T20:56:01.483Z,98349.21
2018-08-18T20:58:32.775Z,98344.38
2018-08-18T21:01:02.458Z,98341.86
2018-08-18T21:03:48.249Z,98349.54
2018-08-18T21:06:18.426Z,98352.35
2018-08-18T21:08:47.804Z,98354.96
2018-08-18T21:11:17.299Z,98354.61
2018-08-18T21:13:48.366Z,98357.61
2018-08-18T21:16:18.159Z,98359.09
2018-08-18T21:18:47.483Z,98355.87
2018-08-18T21:21:32.202Z,98353.25
2018-08-18T21:24:01.493Z,98357.12
2018-08-18T21:26:30.831Z,98360.11
2018-08-18T21:29:00.045Z,98355.40
2018-08-18T21:31:34.316Z,98355.81
2018-08-18T21:34:04.957Z,98361.05
2018-08-18T21:36:34.551Z,98361.74
2018-08-18T21:39:07.984Z,98361.22
2018-08-18T21:41:38.939Z,98369.63
2018-08-18T21:44:10.696Z,98365.22
2018-08-18T21:46:41.434Z,98370.41
2018-08-18T21:49:11.574Z,98366.15
2018-08-18T21:51:40.906Z,98367.91
2018-08-18T21:54:10.206Z,98366.14
2018-08-18T21:56:40.736Z,98366.69
2018-08-18T21:59:11.584Z,98367.14
2018-08-18T22:01:40.986Z,98366.85
2018-08-18T22:04:10.610Z,98368.23
2018-08-18T22:06:39.922Z,98370.87
2018-08-18T22:09:23.185Z,98369.61
2018-08-18T22:11:52.242Z,98376.20
2018-08-18T22:14:21.522Z,98384.89
2018-08-18T22:16:56.819Z,98375.16
2018-08-18T22:19:27.253Z,98374.04
2018-08-18T22:21:56.635Z,98367.53
2018-08-18T22:24:26.014Z,98366.50
2018-08-18T22:26:55.278Z,98360.80
2018-08-18T22:29:27.025Z,98368.66
2018-08-18T22:31:56.308Z,98367.91
2018-08-18T22:34:25.607Z,98364.68
2018-08-18T22:37:10.319Z,98364.22
2018-08-18T22:39:39.662Z,98367.53
2018-08-18T22:42:08.988Z,98363.21
2018-08-18T22:44:38.473Z,98360.25
2018-08-18T22:47:07.757Z,98362.37
2018-08-18T22:49:37.050Z,98362.92
2018-08-18T22:52:06.381Z,98366.18
2018-08-18T22:54:35.637Z,98357.28
2018-08-18T22:57:05.763Z,98357.34
2018-08-18T22:59:35.100Z,98348.99
2018-08-18T23:02:04.454Z,98352.91
2018-08-18T23:04:35.717Z,98351.55
2018-08-18T23:07:05.837Z,98349.74
2018-08-18T23:09:35.149Z,98347.72
2018-08-18T23:12:06.561Z,98347.52
2018-08-18T23:14:36.885Z,98352.96
2018-08-18T23:17:07.891Z,98347.32
2018-08-18T23:19:37.219Z,98344.35
2018-08-18T23:22:06.517Z,98345.16
2018-08-18T23:24:39.392Z,98346.10
2018-08-18T23:27:08.645Z,98344.48
2018-08-18T23:29:37.897Z,98343.82
2018-08-18T23:32:15.321Z,98344.19
2018-08-18T23:34:44.699Z,98360.74
2018-08-18T23:37:18.043Z,98342.94
2018-08-18T23:39:47.362Z,98350.48
2018-08-18T23:42:21.929Z,98340.31
2018-08-18T23:44:51.269Z,98349.02
2018-08-18T23:47:20.733Z,98343.35
2018-08-18T23:49:49.992Z,98348.23
2018-08-18T23:52:19.054Z,98337.50
2018-08-18T23:54:48.284Z,98332.95
2018-08-18T23:57:18.761Z,98333.25
2018-08-18T23:59:48.349Z,98335.75
